Grand Rivers, Kentucky
Current Conditions -  °F | °C
As of 8:35 PM on Tuesday 21 Oct 2014 (Local Time) from K5M9 Reporting Station
Clear Clear  
Wind Chill: 51°   Ceiling: Unl
Heat Index: 51°   Visibility: 10mi
Dew Point: 43°   Wind: 7mph
Humidity: 73%   Direction: 50°NE
Pressure: 30.14"   Gusts: NA
Location:  37°N, 88.23°W
Report Text: K5M9 220135Z AUTO 05006KT 10SM CLR 11/06 A3014 RMK AO2 T01070061
Loading
Personal Weather Stations






























Interactive Weather Map
Tropical Storm Tracking
New forecast layout! Learn more

10-Day Weather Forecast

Advertisements
Track Severe Weather on mobile